METAR Data
IDs: Format: Raw Decoded Include TAF

Data at: 1122 UTC 26 Sep 2018

KS25 261115Z AUTO 23007G12KT 10SM CLR 02/02 A3006 RMK AO2
KS25 261055Z AUTO 23007KT 10SM CLR 02/02 A3006 RMK AO2
KS25 261035Z AUTO 26003KT 10SM CLR 02/02 A3007 RMK AO2
KS25 261015Z AUTO 23003KT 10SM CLR 01/01 A3007 RMK AO2
KS25 260955Z AUTO 23005KT 10SM CLR 01/01 A3008 RMK AO2
KS25 260935Z AUTO 23008KT 10SM CLR 01/01 A3007 RMK AO2
KS25 260915Z AUTO 23007KT 10SM CLR 01/01 A3008 RMK AO2
KS25 260855Z AUTO 24005KT 10SM CLR 01/01 A3009 RMK AO2
KS25 260835Z AUTO 23006KT 10SM CLR 02/02 A3009 RMK AO2
KS25 260815Z AUTO 23007KT 10SM CLR 01/01 A3010 RMK AO2
KS25 260755Z AUTO 23008KT 10SM CLR 01/01 A3010 RMK AO2
KS25 260735Z AUTO 23008KT 10SM CLR 01/01 A3011 RMK AO2
KS25 260715Z AUTO 24007KT 10SM CLR 02/02 A3011 RMK AO2
KS25 260655Z AUTO 23006KT 10SM CLR 01/01 A3012 RMK AO2
KS25 260635Z AUTO 23004KT 10SM CLR 02/02 A3012 RMK AO2
KS25 260615Z AUTO 23005KT 10SM CLR 02/02 A3012 RMK AO2
KS25 260555Z AUTO 23005KT 10SM CLR 01/01 A3013 RMK AO2
KS25 260535Z AUTO 22006KT 10SM CLR 02/02 A3013 RMK AO2
KS25 260515Z AUTO 22006KT 10SM CLR 02/02 A3013 RMK AO2
KS25 260455Z AUTO 23006KT 10SM CLR 01/01 A3013 RMK AO2
KS25 260435Z AUTO 23004KT 10SM CLR 02/02 A3013 RMK AO2
KS25 260415Z AUTO 22003KT 10SM CLR 03/03 A3013 RMK AO2
KS25 260355Z AUTO 22005KT 10SM CLR 03/03 A3013 RMK AO2
KS25 260335Z AUTO 22004KT 10SM CLR 03/03 A3014 RMK AO2
KS25 260315Z AUTO 23004KT 10SM CLR 03/03 A3013 RMK AO2
KS25 260255Z AUTO 23004KT 10SM CLR 04/04 A3013 RMK AO2
KS25 260235Z AUTO 22003KT 10SM CLR 04/04 A3012 RMK AO2
KS25 260215Z AUTO 00000KT 10SM CLR 04/04 A3012 RMK AO2
KS25 260155Z AUTO 28004KT 10SM CLR 06/05 A3012 RMK AO2
KS25 260135Z AUTO 29005KT 10SM CLR 07/05 A3012 RMK AO2
KS25 260115Z AUTO 27006KT 10SM CLR 07/05 A3012 RMK AO2
KS25 260055Z AUTO 27006KT 10SM CLR 07/05 A3011 RMK AO2
KS25 260035Z AUTO 26007KT 10SM CLR 08/06 A3011 RMK AO2
KS25 260015Z AUTO 27008KT 10SM FEW065 FEW100 08/06 A3010 RMK AO2
KS25 252355Z AUTO 29009G16KT 9SM -RA FEW013 SCT035 BKN055 09/05 A3010 RMK AO2
KS25 252335Z AUTO 30012G20KT 3SM -DZ SCT014 SCT036 BKN060 08/06 A3010 RMK AO2
KS25 252315Z AUTO 27010KT 10SM SCT035 SCT049 BKN065 08/06 A3011 RMK AO2
KS25 252255Z AUTO 29018G25KT 5SM -RA FEW017 SCT032 BKN041 09/05 A3011 RMK AO2
KS25 252235Z AUTO 26008KT 10SM BKN055 BKN070 BKN080 11/05 A3009 RMK AO2
KS25 252215Z AUTO 28010G16KT 10SM FEW065 FEW095 11/04 A3008 RMK AO2
KS25 252155Z AUTO 31013G23KT 10SM FEW039 FEW055 SCT090 10/03 A3008 RMK AO2
KS25 252135Z AUTO 32013KT 10SM FEW037 SCT065 BKN090 11/04 A3007 RMK AO2
KS25 252115Z AUTO 32009KT 10SM SCT065 SCT075 SCT090 11/07 A3007 RMK AO2
KS25 252055Z AUTO 33005G11KT 9SM FEW021 SCT048 BKN065 09/07 A3007 RMK AO2
KS25 252035Z AUTO 32011KT 8SM -RA FEW018 BKN025 BKN048 11/07 A3007 RMK AO2
KS25 252015Z AUTO 31014KT 10SM FEW024 SCT049 BKN060 11/07 A3007 RMK AO2
KS25 251955Z AUTO 31017KT 10SM FEW024 SCT033 BKN048 10/06 A3007 RMK AO2
KS25 251935Z AUTO 31013KT 10SM FEW024 SCT032 BKN038 10/06 A3007 RMK AO2
KS25 251915Z AUTO 30013G20KT 10SM FEW019 SCT031 BKN041 09/06 A3008 RMK AO2
KS25 251855Z AUTO 31015G23KT 10SM SCT019 BKN024 OVC042 09/06 A3007 RMK AO2
KS25 251835Z AUTO 32017G26KT 10SM SCT020 BKN027 OVC095 09/06 A3007 RMK AO2
KS25 251815Z AUTO 30015G21KT 10SM SCT019 BKN027 BKN034 09/07 A3007 RMK AO2
KS25 251755Z AUTO 30015G21KT 10SM SCT018 SCT024 BKN031 09/07 A3006 RMK AO2
KS25 251735Z AUTO 31011G18KT 10SM BKN018 BKN024 OVC030 09/08 A3006 RMK AO2
KS25 251715Z AUTO 31014KT 10SM BKN017 OVC023 08/08 A3006 RMK AO2
KS25 251655Z AUTO 29011KT 10SM BKN018 OVC022 08/08 A3006 RMK AO2
KS25 251635Z AUTO 30007G13KT 10SM OVC018 07/07 A3006 RMK AO2
KS25 251615Z AUTO 31007KT 6SM BR SCT018 BKN024 OVC035 07/07 A3006 RMK AO2
KS25 251555Z AUTO 32011G18KT 9SM FEW018 SCT025 BKN031 07/07 A3005 RMK AO2
KS25 251535Z AUTO 32013KT 10SM RA FEW018 BKN026 OVC030 07/07 A3004 RMK AO2
KS25 251515Z AUTO 30012KT 3SM RA FEW001 SCT010 BKN017 07/07 A3004 RMK AO2
KS25 251455Z AUTO 28010KT 6SM BR FEW008 BKN013 OVC031 07/07 A3003 RMK AO2
KS25 251435Z AUTO 28009KT 2 1/2SM RA FEW001 SCT009 BKN018 07/07 A3003 RMK AO2
KS25 251415Z AUTO 27010KT 4SM -RA SCT010 BKN028 OVC034 08/08 A3002 RMK AO2
KS25 251355Z AUTO 26010KT 10SM FEW028 SCT035 BKN044 07/07 A3002 RMK AO2
KS25 251335Z AUTO 25007G13KT 10SM FEW020 SCT037 OVC048 07/07 A3002 RMK AO2
KS25 251315Z AUTO 26007KT 10SM SCT020 OVC039 07/07 A3002 RMK AO2
KS25 251255Z AUTO 27007KT 10SM BKN040 OVC048 07/07 A3002 RMK AO2
KS25 251235Z AUTO 26006G12KT 10SM BKN042 BKN050 OVC060 07/07 A3002 RMK AO2
KS25 251215Z AUTO 25006KT 10SM FEW050 BKN060 BKN080 07/07 A3001 RMK AO2
KS25 251155Z AUTO 24006KT 10SM SCT050 BKN065 BKN095 06/06 A3001 RMK AO2
KS25 251135Z AUTO 23006KT 10SM BKN050 OVC065 06/06 A3001 RMK AO2
KS25 251115Z AUTO 24005KT 10SM OVC060 06/06 A3001 RMK AO2
KS25 251055Z AUTO 23006KT 10SM BKN065 BKN075 BKN100 06/06 A3001 RMK AO2
KS25 251035Z AUTO 24008KT 10SM FEW075 BKN095 06/06 A3001 RMK AO2
KS25 251015Z AUTO 23007KT 10SM BKN095 06/06 A3000 RMK AO2
KS25 250955Z AUTO 23007KT 10SM FEW042 FEW065 BKN095 06/06 A3000 RMK AO2
KS25 250935Z AUTO 25007KT 10SM FEW065 BKN095 06/06 A3001 RMK AO2
KS25 250915Z AUTO 25005KT 10SM BKN060 OVC090 06/06 A3001 RMK AO2
KS25 250855Z AUTO 24005KT 10SM FEW055 FEW065 OVC085 06/06 A3001 RMK AO2
KS25 250835Z AUTO 23005KT 10SM FEW070 OVC080 06/06 A3001 RMK AO2
KS25 250815Z AUTO 23006KT 10SM SCT070 OVC080 06/06 A3001 RMK AO2
KS25 250755Z AUTO 23005KT 10SM SCT070 OVC080 06/06 A3002 RMK AO2
KS25 250735Z AUTO 24006KT 10SM BKN075 OVC085 06/06 A3002 RMK AO2
KS25 250715Z AUTO 22006KT 10SM BKN075 OVC085 06/06 A3003 RMK AO2
KS25 250655Z AUTO 21004KT 10SM BKN080 06/06 A3002 RMK AO2
KS25 250635Z AUTO 22005KT 10SM CLR 06/06 A3003 RMK AO2
KS25 250615Z AUTO 23005KT 10SM CLR 06/06 A3003 RMK AO2
KS25 250555Z AUTO 22005KT 10SM SCT090 06/06 A3003 RMK AO2
KS25 250535Z AUTO 22006KT 10SM FEW026 BKN090 06/06 A3003 RMK AO2
KS25 250515Z AUTO 24005KT 10SM SCT025 SCT065 BKN085 06/06 A3003 RMK AO2
KS25 250455Z AUTO 23005KT 10SM FEW022 BKN060 OVC085 06/06 A3003 RMK AO2
KS25 250435Z AUTO 24004KT 10SM FEW060 OVC085 06/06 A3002 RMK AO2
KS25 250415Z AUTO 26004KT 10SM BKN085 06/06 A3002 RMK AO2
KS25 250355Z AUTO 28005KT 10SM SCT028 BKN080 07/07 A3001 RMK AO2
KS25 250335Z AUTO 29004KT 10SM BKN028 07/07 A3000 RMK AO2
KS25 250315Z AUTO 29005KT 10SM FEW027 SCT035 SCT045 07/07 A3000 RMK AO2
KS25 250255Z AUTO 29006KT 10SM BKN024 BKN035 OVC045 08/08 A3000 RMK AO2
KS25 250235Z AUTO 27006KT 10SM BKN023 OVC037 08/08 A2999 RMK AO2
KS25 250215Z AUTO 27004KT 10SM OVC039 08/08 A2998 RMK AO2
KS25 250155Z AUTO 29005KT 10SM SCT043 BKN050 BKN060 08/08 A2998 RMK AO2
KS25 250135Z AUTO 29006KT 9SM FEW040 BKN055 08/08 A2997 RMK AO2
KS25 250115Z AUTO 30005KT 10SM FEW028 BKN055 08/08 A2996 RMK AO2
KS25 250055Z AUTO 31004KT 9SM SCT021 BKN027 OVC031 09/09 A2996 RMK AO2
KS25 250035Z AUTO 30006G11KT 9SM SCT020 OVC029 09/09 A2996 RMK AO2
KS25 250015Z AUTO 30009KT 9SM FEW017 BKN031 BKN055 09/09 A2996 RMK AO2
KS25 242355Z AUTO 28007KT 6SM -DZ SCT017 SCT027 BKN035 09/09 A2995 RMK AO2
KS25 242335Z AUTO 28008KT 8SM -DZ FEW018 BKN034 BKN048 10/08 A2995 RMK AO2